Time;durP1;ratioP1;P1;durP2;ratioP2;P2;SDS_P1;SDS_P2;PMS_P1;PMS_P2;Temp;Humidity;BMP_temperature;BMP_pressure;BME280_temperature;BME280_humidity;BME280_pressure;Samples;Min_cycle;Max_cycle;Signal;HPM_P1;HPM_P2
2023/10/15 00:00:26;;;;;;;7.97;3.72;;;;;;;20.01;66.06;99389.91;4427795;32;33429;-71
2023/10/15 00:02:54;;;;;;;7.00;3.85;;;;;;;20.06;66.38;99389.91;4456479;32;34443;-71
2023/10/15 00:05:25;;;;;;;9.10;3.85;;;;;;;19.81;66.86;99387.25;4454164;32;32304;-70
2023/10/15 00:07:53;;;;;;;6.07;3.30;;;;;;;19.77;67.15;99388.12;4462919;32;33432;-70
2023/10/15 00:10:22;;;;;;;9.57;3.00;;;;;;;19.68;66.90;99382.84;4445030;32;36095;-71
2023/10/15 00:12:52;;;;;;;5.87;2.30;;;;;;;19.77;65.49;99403.91;4455010;32;34221;-70
2023/10/15 00:15:25;;;;;;;6.00;2.20;;;;;;;19.37;66.35;99411.69;4436259;32;31370;-71
2023/10/15 00:18:01;;;;;;;4.18;1.80;;;;;;;19.67;64.39;99427.53;4444635;32;33028;-71
2023/10/15 00:20:40;;;;;;;4.32;1.90;;;;;;;19.51;63.61;99432.75;4428436;32;31021;-70
2023/10/15 00:23:09;;;;;;;4.07;2.00;;;;;;;19.63;63.91;99442.41;4459982;32;33173;-70
2023/10/15 00:25:41;;;;;;;5.22;2.45;;;;;;;19.74;64.13;99442.44;4459384;32;32680;-71
2023/10/15 00:28:11;;;;;;;6.10;2.50;;;;;;;19.78;65.03;99458.25;4455302;32;33232;-71
2023/10/15 00:30:39;;;;;;;5.65;2.50;;;;;;;19.69;65.80;99471.31;4456634;32;33756;-70
2023/10/15 00:33:14;;;;;;;5.72;2.40;;;;;;;19.90;65.42;99482.78;4455296;32;33385;-71
2023/10/15 00:35:44;;;;;;;6.27;2.53;;;;;;;19.62;66.61;99474.78;4466463;32;34266;-71
2023/10/15 00:38:17;;;;;;;4.90;2.47;;;;;;;19.50;67.49;99466.87;4447647;32;30966;-71
2023/10/15 00:40:51;;;;;;;5.93;2.20;;;;;;;19.53;67.27;99440.59;4460072;32;34258;-71
2023/10/15 00:43:21;;;;;;;5.77;2.47;;;;;;;19.24;67.74;99441.41;4459880;32;34128;-72
2023/10/15 00:45:49;;;;;;;3.53;2.00;;;;;;;19.15;68.57;99454.50;4444494;32;33694;-71
2023/10/15 00:48:33;;;;;;;4.87;2.00;;;;;;;18.97;69.15;99460.53;4446736;32;32634;-71
2023/10/15 00:51:11;;;;;;;3.83;1.90;;;;;;;19.22;67.65;99466.78;4444779;32;32910;-71
2023/10/15 00:53:50;;;;;;;4.00;1.50;;;;;;;19.10;67.39;99461.47;4448960;32;33079;-72
2023/10/15 00:56:21;;;;;;;2.62;1.45;;;;;;;19.01;67.46;99462.31;4448488;32;33057;-71
2023/10/15 01:01:34;;;;;;;2.87;1.50;;;;;;;19.16;66.62;99466.75;4452111;32;33369;-71
2023/10/15 01:04:10;;;;;;;3.65;1.45;;;;;;;19.06;66.57;99471.06;4442383;32;33839;-71
2023/10/15 01:06:39;;;;;;;2.78;1.00;;;;;;;18.93;66.33;99480.63;4444312;32;33176;-70
2023/10/15 01:09:27;;;;;;;2.08;0.90;;;;;;;18.76;66.20;99490.13;4454380;32;33154;-72
2023/10/15 01:11:56;;;;;;;2.17;0.90;;;;;;;18.87;65.44;99485.81;4443834;32;32750;-71
2023/10/15 01:14:31;;;;;;;2.92;0.80;;;;;;;18.60;65.79;99479.53;4453660;32;33028;-71
2023/10/15 01:17:00;;;;;;;2.17;0.70;;;;;;;18.73;64.97;99474.34;4468104;32;33640;-71
2023/10/15 01:19:34;;;;;;;1.12;0.68;;;;;;;18.61;65.40;99476.00;4450842;32;33328;-71
2023/10/15 01:22:08;;;;;;;1.17;0.70;;;;;;;18.31;66.47;99483.66;4463741;32;33199;-70
2023/10/15 01:24:37;;;;;;;2.22;0.80;;;;;;;18.63;65.03;99476.91;4464030;32;34068;-71
2023/10/15 01:27:11;;;;;;;2.47;0.90;;;;;;;18.54;65.45;99468.09;4464874;32;33246;-70
2023/10/15 01:29:41;;;;;;;2.30;0.60;;;;;;;18.24;66.81;99473.09;4466960;32;32839;-71
2023/10/15 01:32:13;;;;;;;2.08;0.60;;;;;;;18.50;66.40;99469.81;4462490;32;34147;-71
2023/10/15 01:34:44;;;;;;;1.83;0.60;;;;;;;18.47;66.28;99477.69;4464535;32;33344;-71
2023/10/15 01:37:30;;;;;;;1.20;0.60;;;;;;;18.28;67.02;99490.63;4468763;32;33558;-71
2023/10/15 01:40:36;;;;;;;1.80;0.60;;;;;;;18.37;67.04;99486.31;4461880;32;32398;-71
2023/10/15 01:42:54;;;;;;;1.67;0.70;;;;;;;18.40;66.99;99494.22;4459174;32;33183;-71
2023/10/15 01:45:31;;;;;;;2.30;0.77;;;;;;;18.48;66.72;99484.66;4466787;32;33275;-72
2023/10/15 01:48:13;;;;;;;4.05;0.70;;;;;;;18.42;67.31;99492.47;4464871;32;32994;-72
2023/10/15 01:50:49;;;;;;;1.65;0.60;;;;;;;18.30;68.24;99495.00;4460911;32;32894;-72
2023/10/15 01:53:23;;;;;;;1.65;0.60;;;;;;;18.42;68.26;99508.22;4463549;32;33797;-72
2023/10/15 01:55:59;;;;;;;1.90;0.70;;;;;;;18.18;69.25;99515.00;4455619;32;33190;-72
2023/10/15 01:58:33;;;;;;;1.75;0.80;;;;;;;18.42;68.70;99514.34;4466768;32;33350;-71
2023/10/15 02:01:20;;;;;;;1.10;0.60;;;;;;;18.49;68.06;99510.03;4448313;32;32761;-72
2023/10/15 02:03:48;;;;;;;1.80;0.70;;;;;;;18.36;68.72;99498.56;4455319;32;33136;-72
2023/10/15 02:06:19;;;;;;;1.90;0.80;;;;;;;18.70;67.95;99503.19;4460033;32;33376;-71
2023/10/15 02:08:51;;;;;;;4.10;0.80;;;;;;;18.33;68.72;99503.78;4458182;26;34317;-78
2023/10/15 02:11:22;;;;;;;2.55;0.93;;;;;;;18.63;67.57;99500.50;4424457;32;32605;-78
2023/10/15 02:13:51;;;;;;;2.10;0.80;;;;;;;18.58;67.47;99498.72;4425412;32;33268;-78
2023/10/15 02:16:29;;;;;;;2.00;0.95;;;;;;;18.40;68.70;99494.22;4427451;32;33666;-78
2023/10/15 02:18:59;;;;;;;2.70;0.80;;;;;;;18.32;69.21;99495.91;4434832;32;33780;-78
2023/10/15 02:21:34;;;;;;;2.05;0.80;;;;;;;18.22;69.79;99495.81;4423359;32;33247;-78
2023/10/15 02:24:08;;;;;;;3.15;0.90;;;;;;;18.22;69.53;99495.81;4426192;32;33978;-78
2023/10/15 02:26:37;;;;;;;2.20;0.88;;;;;;;18.12;70.47;99493.09;4433912;32;32818;-79
2023/10/15 02:29:21;;;;;;;3.53;0.88;;;;;;;18.08;70.29;99497.44;4426024;32;33278;-79
2023/10/15 02:31:49;;;;;;;1.62;0.75;;;;;;;18.02;70.75;99510.47;4426093;32;32565;-78
2023/10/15 02:34:16;;;;;;;2.22;0.80;;;;;;;18.18;69.69;99504.53;4426985;32;33914;-79
2023/10/15 02:36:44;;;;;;;1.75;0.80;;;;;;;18.04;70.07;99495.63;4427879;32;33593;-78
2023/10/15 02:39:13;;;;;;;2.83;0.80;;;;;;;18.00;70.44;99504.34;4421686;32;33553;-77
2023/10/15 02:41:41;;;;;;;3.05;1.00;;;;;;;17.94;70.92;99514.75;4419754;32;34063;-78
2023/10/15 02:44:18;;;;;;;2.67;0.98;;;;;;;18.02;70.68;99506.13;4426139;32;34572;-78
2023/10/15 02:46:49;;;;;;;3.85;1.10;;;;;;;17.67;71.99;99522.31;4426485;32;32986;-78
2023/10/15 02:49:17;;;;;;;2.37;1.05;;;;;;;17.80;71.93;99525.06;4429936;32;34035;-78
2023/10/15 02:51:48;;;;;;;2.95;0.90;;;;;;;18.04;70.65;99524.47;4433666;32;33041;-78
2023/10/15 02:54:18;;;;;;;2.75;0.98;;;;;;;17.92;70.79;99537.44;4425110;32;33506;-78
2023/10/15 02:56:46;;;;;;;3.35;1.20;;;;;;;18.00;70.35;99535.78;4429779;32;33562;-78
2023/10/15 02:59:16;;;;;;;2.35;1.10;;;;;;;17.89;71.17;99548.78;4429268;32;34972;-78
2023/10/15 03:01:46;;;;;;;2.53;1.00;;;;;;;17.97;70.78;99541.00;4424431;32;33031;-78
2023/10/15 03:04:32;;;;;;;1.95;1.00;;;;;;;17.74;71.62;99544.22;4429443;32;32920;-78
2023/10/15 03:07:19;;;;;;;2.95;1.25;;;;;;;17.74;71.25;99549.44;4429662;32;33787;-78
2023/10/15 03:09:56;;;;;;;3.83;1.50;;;;;;;17.91;70.20;99548.81;4412749;32;33649;-78
2023/10/15 03:12:25;;;;;;;3.42;1.20;;;;;;;17.92;69.94;99542.69;4427911;32;32051;-78
2023/10/15 03:14:53;;;;;;;2.60;1.50;;;;;;;17.84;70.18;99534.75;4426169;32;34529;-78
2023/10/15 03:17:24;;;;;;;2.62;1.30;;;;;;;17.78;70.33;99530.28;4427019;32;33423;-78
2023/10/15 03:19:56;;;;;;;3.33;1.17;;;;;;;17.57;71.13;99519.56;4424103;32;33521;-78
2023/10/15 03:22:24;;;;;;;3.10;1.30;;;;;;;17.82;70.37;99518.97;4431234;32;32274;-78
2023/10/15 03:24:56;;;;;;;4.15;1.70;;;;;;;17.53;71.59;99512.53;4427246;32;33430;-79
2023/10/15 03:27:26;;;;;;;3.62;1.42;;;;;;;17.49;71.56;99522.09;4428662;32;33331;-78
2023/10/15 03:29:57;;;;;;;3.40;1.62;;;;;;;17.90;69.47;99520.84;4425369;32;32821;-79
2023/10/15 03:32:31;;;;;;;5.43;1.60;;;;;;;17.78;69.99;99530.28;4431594;32;33743;-78
2023/10/15 03:35:07;;;;;;;5.55;1.80;;;;;;;17.81;69.58;99519.84;4431404;32;33907;-79
2023/10/15 03:37:45;;;;;;;3.63;1.70;;;;;;;17.84;69.51;99532.12;4424734;32;32916;-79
2023/10/15 03:40:30;;;;;;;3.67;1.52;;;;;;;17.91;68.76;99541.81;4426416;32;33080;-78
2023/10/15 03:43:15;;;;;;;2.85;1.60;;;;;;;17.85;69.08;99537.38;4411867;32;32642;-78
2023/10/15 03:45:52;;;;;;;4.17;1.83;;;;;;;17.77;69.30;99528.53;4432608;32;33506;-78
2023/10/15 03:48:22;;;;;;;4.10;2.00;;;;;;;17.87;68.81;99534.78;4426760;32;33099;-78
2023/10/15 03:50:55;;;;;;;3.97;1.70;;;;;;;17.76;69.06;99537.25;4424781;32;33654;-78
2023/10/15 03:53:32;;;;;;;4.20;2.10;;;;;;;17.49;70.35;99533.44;4420344;32;32531;-78
2023/10/15 03:56:01;;;;;;;4.87;2.10;;;;;;;17.69;68.61;99527.53;4431074;32;32696;-78
2023/10/15 03:58:31;;;;;;;5.37;1.95;;;;;;;17.58;68.09;99535.28;4415560;32;33355;-78
2023/10/15 04:03:47;;;;;;;4.03;1.87;;;;;;;17.23;65.68;99513.87;4432261;32;32594;-78
2023/10/15 04:06:18;;;;;;;5.12;2.17;;;;;;;16.97;66.26;99517.03;4428372;32;33151;-78
2023/10/15 04:11:30;;;;;;;4.05;1.80;;;;;;;16.75;66.46;99509.72;4431665;32;32962;-78
2023/10/15 04:14:11;;;;;;;7.03;2.00;;;;;;;16.54;66.20;99502.41;4420026;32;32964;-78
2023/10/15 04:16:42;;;;;;;4.18;1.73;;;;;;;16.52;66.48;99502.38;4414680;32;32975;-78
2023/10/15 04:19:10;;;;;;;4.43;1.70;;;;;;;16.80;65.35;99508.03;4430187;32;33050;-78
2023/10/15 04:21:42;;;;;;;5.57;1.80;;;;;;;16.69;65.69;99513.97;4432216;32;33738;-78
2023/10/15 04:24:14;;;;;;;4.43;1.77;;;;;;;16.83;65.04;99523.81;4424673;32;33552;-78
2023/10/15 04:26:48;;;;;;;5.03;2.00;;;;;;;16.80;65.19;99539.41;4430201;32;33432;-78
2023/10/15 04:29:16;;;;;;;3.53;1.50;;;;;;;16.73;65.30;99537.53;4428044;32;33027;-78
2023/10/15 04:31:45;;;;;;;5.12;1.90;;;;;;;16.64;65.87;99543.53;4428207;32;34509;-78
2023/10/15 04:34:18;;;;;;;5.18;1.98;;;;;;;16.57;66.27;99550.38;4423195;32;33759;-78
2023/10/15 04:36:45;;;;;;;5.60;1.80;;;;;;;16.53;65.22;99559.03;4428919;32;34134;-78
2023/10/15 04:39:15;;;;;;;4.72;1.80;;;;;;;16.29;65.35;99547.31;4427538;32;33676;-78
2023/10/15 04:41:49;;;;;;;6.82;1.87;;;;;;;16.29;64.66;99536.84;4422926;32;33521;-78
2023/10/15 04:44:25;;;;;;;6.15;2.00;;;;;;;16.29;64.71;99531.62;4428466;32;34015;-78
2023/10/15 04:46:54;;;;;;;6.05;1.83;;;;;;;16.23;64.07;99525.41;4421544;32;33328;-78
2023/10/15 04:49:23;;;;;;;5.07;1.80;;;;;;;16.19;63.60;99531.44;4434287;32;33670;-78
2023/10/15 04:51:52;;;;;;;4.25;1.65;;;;;;;15.98;64.47;99547.59;4425176;32;34426;-78
2023/10/15 04:54:23;;;;;;;5.12;1.77;;;;;;;15.94;64.84;99558.84;4431932;32;33718;-78
2023/10/15 04:56:52;;;;;;;4.75;1.77;;;;;;;16.01;64.50;99565.94;4428653;32;32738;-78
2023/10/15 04:59:19;;;;;;;5.00;1.55;;;;;;;15.88;64.44;99564.84;4409510;32;32165;-78
2023/10/15 05:01:48;;;;;;;4.57;1.80;;;;;;;16.21;63.25;99575.03;4424101;32;33533;-78
2023/10/15 05:04:16;;;;;;;5.50;1.50;;;;;;;16.11;63.61;99588.78;4431613;32;33829;-78
2023/10/15 05:06:43;;;;;;;6.62;1.70;;;;;;;16.21;63.00;99600.31;4435133;32;34382;-78
2023/10/15 05:09:21;;;;;;;6.00;1.65;;;;;;;15.98;63.68;99607.69;4425771;32;33566;-79
2023/10/15 05:11:52;;;;;;;5.45;1.70;;;;;;;16.10;63.69;99607.91;4424872;32;33469;-78
2023/10/15 05:14:20;;;;;;;4.35;1.60;;;;;;;15.94;63.39;99600.66;4431891;32;33809;-78
2023/10/15 05:16:48;;;;;;;6.63;2.00;;;;;;;16.00;63.04;99600.75;4431235;32;33621;-78
2023/10/15 05:19:19;;;;;;;5.47;1.77;;;;;;;15.87;63.68;99599.63;4428257;32;34492;-78
2023/10/15 05:21:46;;;;;;;5.97;1.70;;;;;;;15.86;63.52;99596.16;4424669;32;33441;-78
2023/10/15 05:24:18;;;;;;;5.90;1.85;;;;;;;15.96;63.13;99580.66;4430946;32;33059;-78
2023/10/15 05:26:47;;;;;;;5.57;2.00;;;;;;;15.94;63.97;99588.47;4427894;32;34315;-77
2023/10/15 05:29:15;;;;;;;4.95;1.73;;;;;;;15.82;64.86;99596.03;4411512;32;34203;-78
2023/10/15 05:31:43;;;;;;;6.05;1.90;;;;;;;16.00;63.91;99595.53;4420108;32;34552;-78
2023/10/15 05:34:11;;;;;;;5.97;1.80;;;;;;;15.92;64.34;99613.69;4425590;32;34039;-77
2023/10/15 05:36:39;;;;;;;7.72;2.10;;;;;;;15.73;64.65;99620.25;4427542;32;33629;-78
2023/10/15 05:39:09;;;;;;;6.72;2.05;;;;;;;15.73;64.53;99618.50;4425069;32;34306;-78
2023/10/15 05:41:37;;;;;;;5.87;1.90;;;;;;;15.86;63.94;99627.50;4430809;32;32864;-77
2023/10/15 05:44:04;;;;;;;6.90;2.22;;;;;;;15.96;63.56;99619.84;4411289;32;33998;-78
2023/10/15 05:46:32;;;;;;;4.90;1.77;;;;;;;15.83;63.44;99623.94;4431736;32;34546;-79
2023/10/15 05:49:00;;;;;;;5.57;1.98;;;;;;;15.98;62.29;99628.59;4430825;32;33381;-78
2023/10/15 05:51:27;;;;;;;5.82;1.92;;;;;;;15.96;62.45;99633.78;4431788;32;33619;-78
2023/10/15 05:53:55;;;;;;;6.62;1.87;;;;;;;15.80;62.94;99635.19;4433204;32;32493;-78
2023/10/15 05:56:23;;;;;;;5.20;1.73;;;;;;;15.72;63.25;99641.94;4427524;32;33721;-78
2023/10/15 05:58:50;;;;;;;7.18;1.87;;;;;;;15.71;63.12;99654.12;4427382;32;34543;-78
2023/10/15 06:01:18;;;;;;;7.40;1.80;;;;;;;15.76;63.35;99679.47;4433665;32;34066;-78
2023/10/15 06:03:45;;;;;;;5.80;1.70;;;;;;;15.71;63.26;99669.78;4424165;32;33540;-78
2023/10/15 06:06:13;;;;;;;4.60;1.80;;;;;;;15.32;64.59;99677.59;4431511;32;33598;-78
2023/10/15 06:08:41;;;;;;;4.70;1.50;;;;;;;15.35;64.12;99685.50;4430043;32;33594;-78
2023/10/15 06:11:08;;;;;;;7.03;1.85;;;;;;;15.46;63.80;99686.63;4433324;32;33915;-78
2023/10/15 06:13:36;;;;;;;4.72;1.70;;;;;;;15.40;63.90;99686.50;4422523;32;33226;-78
2023/10/15 06:16:04;;;;;;;5.95;1.80;;;;;;;15.28;64.36;99691.44;4412124;32;34398;-78
2023/10/15 06:18:31;;;;;;;5.05;1.62;;;;;;;15.29;64.97;99687.97;4429412;32;33879;-78
2023/10/15 06:20:59;;;;;;;7.03;1.90;;;;;;;15.36;64.50;99684.66;4426379;32;33539;-78
2023/10/15 06:23:27;;;;;;;5.40;2.00;;;;;;;15.21;65.02;99679.94;4421726;32;33369;-78
2023/10/15 06:25:55;;;;;;;4.68;1.48;;;;;;;15.36;64.36;99684.66;4426457;32;34197;-78
2023/10/15 06:28:23;;;;;;;5.62;2.00;;;;;;;15.07;65.53;99663.97;4426823;32;34565;-78
2023/10/15 06:30:51;;;;;;;5.97;1.90;;;;;;;15.31;65.05;99662.78;4430195;32;33995;-78
2023/10/15 06:33:19;;;;;;;6.97;1.80;;;;;;;15.12;65.01;99659.75;4399750;32;32582;-78
2023/10/15 06:35:47;;;;;;;6.40;1.70;;;;;;;15.09;65.79;99667.50;4431032;32;33686;-78
2023/10/15 06:38:17;;;;;;;6.43;1.87;;;;;;;15.16;65.71;99659.81;4428782;32;33841;-78
2023/10/15 06:40:45;;;;;;;5.13;1.89;;;;;;;15.20;65.55;99661.62;4426430;32;33702;-78
2023/10/15 06:43:15;;;;;;;6.85;1.92;;;;;;;15.29;64.85;99677.53;4424036;32;32886;-78
2023/10/15 06:45:42;;;;;;;7.85;1.87;;;;;;;15.41;64.47;99676.94;4431123;32;33502;-78
2023/10/15 06:48:10;;;;;;;5.90;1.93;;;;;;;15.47;64.09;99677.97;4425596;32;34588;-78
2023/10/15 06:50:38;;;;;;;7.60;1.90;;;;;;;15.20;64.34;99682.50;4427253;32;33158;-78
2023/10/15 06:53:05;;;;;;;6.70;1.90;;;;;;;15.22;64.60;99668.69;4423330;32;33449;-78
2023/10/15 06:55:33;;;;;;;7.20;1.92;;;;;;;15.03;64.07;99654.31;4433437;32;33708;-78
2023/10/15 06:58:01;;;;;;;6.45;2.25;;;;;;;14.66;65.58;99660.31;4428509;32;33764;-78
2023/10/15 07:00:31;;;;;;;6.30;1.77;;;;;;;14.77;65.29;99665.81;4425697;32;33984;-78
2023/10/15 07:03:00;;;;;;;5.06;1.67;;;;;;;14.87;64.74;99647.84;4423634;32;34011;-78
2023/10/15 07:05:28;;;;;;;7.28;1.85;;;;;;;15.01;63.86;99640.34;4433840;32;33686;-78
2023/10/15 07:07:58;;;;;;;6.03;2.10;;;;;;;15.17;63.05;99651.16;4423840;32;33401;-78
2023/10/15 07:10:27;;;;;;;6.58;1.84;;;;;;;14.89;63.06;99640.94;4425698;32;33244;-78
2023/10/15 07:12:56;;;;;;;6.03;1.65;;;;;;;14.86;64.05;99629.53;4423503;32;32972;-78
2023/10/15 07:15:24;;;;;;;5.40;1.65;;;;;;;15.01;63.39;99642.97;4433387;32;33665;-78
2023/10/15 07:17:53;;;;;;;7.47;1.73;;;;;;;15.12;61.86;99672.78;4433642;32;33486;-78
2023/10/15 07:20:24;;;;;;;5.57;1.60;;;;;;;15.13;62.15;99700.62;4429919;32;34119;-78
2023/10/15 07:22:54;;;;;;;6.43;2.05;;;;;;;15.27;61.81;99705.31;4430584;32;32879;-78
2023/10/15 07:25:24;;;;;;;5.50;1.83;;;;;;;15.59;61.38;99724.34;4423304;32;33568;-79
2023/10/15 07:27:54;;;;;;;5.90;1.67;;;;;;;15.33;62.07;99727.19;4421806;32;32678;-78
2023/10/15 07:30:22;;;;;;;7.97;1.95;;;;;;;15.55;61.55;99738.19;4420779;32;33698;-78
2023/10/15 07:32:59;;;;;;;7.43;1.90;;;;;;;15.34;61.72;99726.37;4422268;32;33344;-77
2023/10/15 07:35:29;;;;;;;4.50;1.70;;;;;;;15.60;60.57;99733.94;4425657;32;33342;-78
2023/10/15 07:37:57;;;;;;;8.47;1.83;;;;;;;15.39;62.29;99742.13;4426399;32;33352;-77
2023/10/15 07:40:26;;;;;;;8.20;2.00;;;;;;;15.03;62.95;99748.22;4422980;32;34417;-77
2023/10/15 07:42:59;;;;;;;7.37;1.73;;;;;;;15.12;62.83;99745.84;4425379;32;33487;-78
2023/10/15 07:45:30;;;;;;;8.32;1.87;;;;;;;15.33;62.06;99721.13;4429433;32;33932;-77
2023/10/15 07:47:59;;;;;;;7.68;2.03;;;;;;;15.12;62.10;99732.81;4426007;32;33786;-80
2023/10/15 07:50:32;;;;;;;7.05;1.65;;;;;;;15.20;62.34;99739.91;4408340;32;33499;-79
2023/10/15 07:53:00;;;;;;;5.65;1.62;;;;;;;15.42;61.64;99729.16;4426472;32;33548;-78
2023/10/15 07:55:28;;;;;;;7.15;1.60;;;;;;;15.29;62.46;99724.50;4422811;32;33330;-77
2023/10/15 07:57:57;;;;;;;6.15;1.77;;;;;;;15.54;61.66;99726.84;4427728;32;33740;-77
2023/10/15 08:00:33;;;;;;;6.15;2.00;;;;;;;15.72;61.23;99731.63;4421516;32;33619;-80
2023/10/15 08:03:02;;;;;;;6.70;1.80;;;;;;;15.52;61.65;99718.09;4428090;32;32119;-76
2023/10/15 08:05:33;;;;;;;8.00;2.05;;;;;;;15.68;60.91;99723.66;4429388;32;34221;-80
2023/10/15 08:08:04;;;;;;;6.12;1.90;;;;;;;15.61;61.91;99712.22;4420414;32;33385;-80
2023/10/15 08:10:34;;;;;;;8.13;2.10;;;;;;;15.99;60.48;99700.88;4415151;32;33473;-78
2023/10/15 08:13:04;;;;;;;8.88;1.80;;;;;;;16.05;60.35;99708.84;4424964;32;33733;-78
2023/10/15 08:15:36;;;;;;;6.60;2.05;;;;;;;16.18;60.40;99725.66;4432520;32;33570;-78
2023/10/15 08:18:04;;;;;;;7.50;1.70;;;;;;;16.21;60.14;99726.63;4420100;32;33487;-77
2023/10/15 08:20:32;;;;;;;7.03;1.73;;;;;;;16.26;59.33;99732.84;4426582;32;33506;-78
2023/10/15 08:23:00;;;;;;;7.93;1.85;;;;;;;16.47;58.52;99723.62;4432823;32;33166;-77
2023/10/15 08:25:31;;;;;;;6.77;1.87;;;;;;;16.31;58.41;99715.50;4424806;32;34444;-77
2023/10/15 08:28:02;;;;;;;6.48;1.74;;;;;;;16.08;59.30;99721.97;4433491;32;33391;-79
2023/10/15 08:30:31;;;;;;;5.70;1.60;;;;;;;16.24;58.25;99716.22;4429633;32;35128;-78
2023/10/15 08:32:58;;;;;;;6.28;1.60;;;;;;;16.34;57.52;99721.63;4428997;32;33423;-79
2023/10/15 08:35:26;;;;;;;8.75;1.73;;;;;;;16.26;57.66;99717.16;4426191;32;33599;-78
2023/10/15 08:37:54;;;;;;;8.70;1.60;;;;;;;16.07;56.62;99707.12;4425996;32;33679;-77
2023/10/15 08:40:21;;;;;;;7.43;1.67;;;;;;;15.98;56.79;99717.41;4429329;32;34122;-78
2023/10/15 08:43:00;;;;;;;7.72;1.90;;;;;;;16.10;56.12;99728.13;4425157;32;32863;-77
2023/10/15 08:45:29;;;;;;;6.12;1.52;;;;;;;16.00;56.70;99731.38;4412213;32;33036;-79
2023/10/15 08:48:01;;;;;;;8.16;1.60;;;;;;;15.95;56.43;99727.78;4424720;32;33387;-78
2023/10/15 08:50:29;;;;;;;7.12;2.10;;;;;;;15.97;56.57;99726.97;4429144;32;33563;-79
2023/10/15 08:52:57;;;;;;;7.22;1.83;;;;;;;15.65;57.90;99734.06;4413486;32;32958;-78
2023/10/15 08:55:25;;;;;;;6.10;1.92;;;;;;;15.76;57.24;99732.63;4432570;32;34099;-80
2023/10/15 08:57:56;;;;;;;8.38;1.90;;;;;;;15.89;56.90;99733.75;4410864;32;33505;-80
2023/10/15 09:00:25;;;;;;;7.37;2.08;;;;;;;15.86;55.87;99729.34;4425328;32;33067;-79
2023/10/15 09:03:00;;;;;;;5.10;1.60;;;;;;;16.02;56.61;99721.84;4427472;32;32891;-79
2023/10/15 09:05:40;;;;;;;5.62;1.62;;;;;;;15.97;56.13;99715.62;4429465;32;34493;-80
2023/10/15 09:08:12;;;;;;;10.70;1.90;;;;;;;15.91;55.78;99713.78;4432327;32;32838;-76
2023/10/15 09:10:41;;;;;;;6.93;1.80;;;;;;;15.70;56.08;99711.53;4415367;32;32653;-78
2023/10/15 09:13:14;;;;;;;5.75;1.87;;;;;;;15.84;55.90;99715.38;4417006;32;33010;-78
2023/10/15 09:15:43;;;;;;;6.15;1.90;;;;;;;16.13;54.82;99707.28;4428278;32;34005;-78
2023/10/15 09:18:11;;;;;;;7.95;1.75;;;;;;;16.10;55.26;99704.59;4425780;32;33928;-79
2023/10/15 09:20:44;;;;;;;4.37;1.60;;;;;;;16.11;55.27;99706.38;4431495;32;34019;-78
2023/10/15 09:23:12;;;;;;;6.18;1.90;;;;;;;16.38;54.89;99703.44;4431693;32;33076;-78
2023/10/15 09:25:41;;;;;;;8.48;1.95;;;;;;;16.33;55.22;99710.28;4415708;32;33745;-80
2023/10/15 09:28:09;;;;;;;6.07;1.87;;;;;;;16.69;53.79;99719.72;4423786;32;33601;-77
2023/10/15 09:30:36;;;;;;;6.33;2.00;;;;;;;16.77;53.11;99728.59;4421606;32;34360;-79
2023/10/15 09:33:12;;;;;;;7.63;2.00;;;;;;;16.76;53.07;99731.16;4430667;32;32845;-80
2023/10/15 09:35:41;;;;;;;8.00;2.25;;;;;;;16.85;53.17;99732.25;4431377;32;33256;-81
2023/10/15 09:38:16;;;;;;;6.40;1.80;;;;;;;16.78;53.44;99716.38;4417555;32;32581;-78
2023/10/15 09:40:44;;;;;;;6.75;1.92;;;;;;;16.74;51.79;99707.59;4436219;32;33353;-79
2023/10/15 09:43:13;;;;;;;7.15;2.10;;;;;;;16.77;51.57;99712.88;4411230;32;33215;-80
2023/10/15 09:45:44;;;;;;;8.18;2.12;;;;;;;16.63;52.01;99714.34;4416586;32;33740;-79
2023/10/15 09:48:12;;;;;;;8.70;1.92;;;;;;;16.56;51.84;99720.34;4407405;32;33666;-78
2023/10/15 09:50:41;;;;;;;8.00;1.92;;;;;;;16.35;52.19;99723.41;4412714;32;33872;-80
2023/10/15 09:53:10;;;;;;;7.55;2.00;;;;;;;16.41;51.68;99726.13;4409083;32;33096;-79
2023/10/15 09:55:40;;;;;;;6.62;1.80;;;;;;;16.36;51.93;99735.59;4427785;32;33746;-80
2023/10/15 09:58:10;;;;;;;10.02;4.43;;;;;;;16.37;51.59;99737.38;4428134;32;33633;-81
2023/10/15 10:00:59;;;;;;;11.10;5.30;;;;;;;16.39;51.49;99746.12;4427733;32;32852;-80
2023/10/15 10:03:39;;;;;;;9.98;4.03;;;;;;;16.43;52.07;99753.19;4412899;32;32312;-79
2023/10/15 10:06:22;;;;;;;8.86;3.08;;;;;;;16.33;53.21;99746.03;4422322;32;33862;-79
2023/10/15 10:09:16;;;;;;;27.10;10.80;;;;;;;16.48;52.80;99747.19;4426818;32;32936;-81
2023/10/15 10:11:51;;;;;;;12.50;4.07;;;;;;;16.39;52.05;99736.56;4429735;32;33151;-78
2023/10/15 10:14:32;;;;;;;8.25;2.15;;;;;;;16.30;51.88;99745.09;4416365;32;33141;-78
2023/10/15 10:17:00;;;;;;;8.88;3.10;;;;;;;16.50;51.10;99742.00;4428916;32;33656;-79
2023/10/15 10:19:29;;;;;;;6.95;1.90;;;;;;;16.18;52.52;99747.44;4418116;32;34345;-80
2023/10/15 10:21:58;;;;;;;5.60;1.92;;;;;;;16.52;50.47;99748.16;4424055;32;34353;-78
2023/10/15 10:24:42;;;;;;;5.77;1.70;;;;;;;16.43;49.00;99745.34;4412187;32;31698;-79
2023/10/15 10:27:14;;;;;;;6.95;2.20;;;;;;;16.43;49.82;99747.97;4424663;32;33155;-78
2023/10/15 10:29:43;;;;;;;6.60;1.95;;;;;;;16.56;49.56;99742.13;4428638;32;34184;-78
2023/10/15 10:32:14;;;;;;;6.15;1.83;;;;;;;16.70;48.01;99743.25;4429920;32;33442;-79
2023/10/15 10:34:42;;;;;;;5.99;2.11;;;;;;;16.80;47.91;99748.66;4426384;32;33030;-79
2023/10/15 10:37:31;;;;;;;6.07;1.80;;;;;;;16.59;47.57;99739.59;4429270;32;34005;-78
2023/10/15 10:39:59;;;;;;;7.73;2.17;;;;;;;16.37;48.34;99747.84;4429007;32;33729;-78
2023/10/15 10:42:28;;;;;;;5.65;1.90;;;;;;;16.49;49.52;99746.34;4424963;32;33636;-80
2023/10/15 10:44:57;;;;;;;6.28;2.20;;;;;;;16.76;48.75;99746.84;4426563;32;33714;-77
2023/10/15 10:47:33;;;;;;;6.50;2.05;;;;;;;16.60;49.42;99741.34;4424825;32;34341;-78
2023/10/15 10:50:03;;;;;;;6.40;1.95;;;;;;;16.70;49.17;99740.66;4429049;32;33042;-77
2023/10/15 10:52:36;;;;;;;7.78;1.92;;;;;;;16.67;48.76;99747.56;4429514;32;32685;-79
2023/10/15 10:55:33;;;;;;;8.27;2.10;;;;;;;16.64;48.23;99753.59;4429173;32;32903;-78
2023/10/15 10:58:08;;;;;;;8.65;2.47;;;;;;;16.52;49.17;99748.16;4426085;32;32743;-79
2023/10/15 11:00:35;;;;;;;8.70;2.50;;;;;;;16.43;49.56;99746.22;4428956;32;33023;-79
2023/10/15 11:03:06;;;;;;;8.55;2.30;;;;;;;16.45;49.61;99756.72;4432306;32;34268;-79
2023/10/15 11:05:35;;;;;;;10.50;3.72;;;;;;;16.44;49.68;99749.75;4409827;32;31553;-79
2023/10/15 11:08:03;;;;;;;11.13;4.47;;;;;;;16.53;49.01;99755.13;4402879;32;791362;-79
2023/10/15 11:10:32;;;;;;;11.67;4.90;;;;;;;16.41;49.76;99757.50;4431625;32;34205;-79
2023/10/15 11:13:02;;;;;;;15.82;5.97;;;;;;;16.29;49.70;99766.84;4411669;32;33866;-79
2023/10/15 11:15:30;;;;;;;17.92;7.37;;;;;;;16.45;48.63;99754.09;4424631;32;33250;-77
2023/10/15 11:17:59;;;;;;;11.55;4.22;;;;;;;16.59;48.85;99750.03;4420410;32;34500;-78
2023/10/15 11:20:27;;;;;;;5.90;2.25;;;;;;;16.47;49.21;99760.25;4426138;32;33759;-78
2023/10/15 11:22:55;;;;;;;6.93;2.05;;;;;;;16.36;48.66;99743.44;4430669;32;33475;-79
2023/10/15 11:25:23;;;;;;;6.20;1.98;;;;;;;16.51;48.13;99738.53;4409147;32;33283;-78
2023/10/15 11:27:54;;;;;;;7.78;2.40;;;;;;;16.49;48.52;99742.84;4421344;32;34501;-79
2023/10/15 11:30:21;;;;;;;16.00;7.23;;;;;;;16.53;48.34;99744.66;4426729;32;33643;-79
2023/10/15 11:32:51;;;;;;;7.28;2.60;;;;;;;16.38;49.11;99749.59;4415142;32;33632;-78
2023/10/15 11:35:19;;;;;;;7.07;2.40;;;;;;;16.47;48.41;99749.78;4420023;32;33072;-79
2023/10/15 11:37:50;;;;;;;8.63;2.30;;;;;;;16.52;49.16;99750.78;4430620;32;33596;-78
2023/10/15 11:40:20;;;;;;;9.23;3.25;;;;;;;16.62;49.12;99757.94;4410585;32;33591;-79
2023/10/15 11:42:50;;;;;;;7.90;2.40;;;;;;;16.62;48.50;99755.31;4429840;32;34494;-78
2023/10/15 11:45:25;;;;;;;6.93;2.62;;;;;;;16.46;48.75;99750.66;4423202;32;33874;-78
2023/10/15 11:47:55;;;;;;;8.43;2.87;;;;;;;16.60;48.53;99756.16;4409643;32;32725;-79
2023/10/15 11:50:23;;;;;;;12.57;6.20;;;;;;;16.60;49.59;99751.78;4425157;32;34703;-78
2023/10/15 11:52:54;;;;;;;8.10;3.37;;;;;;;16.76;48.28;99752.09;4405732;32;33797;-81
2023/10/15 11:55:22;;;;;;;6.87;1.87;;;;;;;16.91;47.50;99747.19;4413725;32;30977;-78
2023/10/15 11:57:50;;;;;;;6.18;2.00;;;;;;;16.71;47.21;99739.81;4425337;32;33205;-79
2023/10/15 12:00:58;;;;;;;7.43;2.10;;;;;;;16.87;47.26;99732.28;4412844;32;34341;-79